sensor_id;sensor_type;location;lat;lon;timestamp;P1;durP1;ratioP1;P2;durP2;ratioP2
72060;SDS011;59925;52.136;5.420;2023-04-01T00:01:04;15.15;;;5.35;;
72060;SDS011;59925;52.136;5.420;2023-04-01T00:03:32;15.02;;;5.57;;
72060;SDS011;59925;52.136;5.420;2023-04-01T00:05:59;18.48;;;5.57;;
72060;SDS011;59925;52.136;5.420;2023-04-01T00:08:26;17.27;;;5.97;;
72060;SDS011;59925;52.136;5.420;2023-04-01T00:10:53;11.53;;;5.47;;
72060;SDS011;59925;52.136;5.420;2023-04-01T00:13:20;18.55;;;5.30;;
72060;SDS011;59925;52.136;5.420;2023-04-01T00:15:47;16.38;;;6.10;;
72060;SDS011;59925;52.136;5.420;2023-04-01T00:18:13;15.68;;;5.45;;
72060;SDS011;59925;52.136;5.420;2023-04-01T00:20:44;14.48;;;6.05;;
72060;SDS011;59925;52.136;5.420;2023-04-01T00:23:12;13.33;;;5.30;;
72060;SDS011;59925;52.136;5.420;2023-04-01T00:25:39;14.93;;;5.53;;
72060;SDS011;59925;52.136;5.420;2023-04-01T00:28:05;25.13;;;5.72;;
72060;SDS011;59925;52.136;5.420;2023-04-01T00:30:32;15.35;;;5.75;;
72060;SDS011;59925;52.136;5.420;2023-04-01T00:32:58;15.32;;;6.30;;
72060;SDS011;59925;52.136;5.420;2023-04-01T00:35:25;15.73;;;6.27;;
72060;SDS011;59925;52.136;5.420;2023-04-01T00:37:52;18.05;;;6.18;;
72060;SDS011;59925;52.136;5.420;2023-04-01T00:40:23;18.17;;;6.00;;
72060;SDS011;59925;52.136;5.420;2023-04-01T00:43:11;18.00;;;6.40;;
72060;SDS011;59925;52.136;5.420;2023-04-01T00:45:40;21.20;;;6.72;;
72060;SDS011;59925;52.136;5.420;2023-04-01T00:48:10;14.77;;;6.10;;
72060;SDS011;59925;52.136;5.420;2023-04-01T00:50:39;19.23;;;6.45;;
72060;SDS011;59925;52.136;5.420;2023-04-01T00:53:08;19.75;;;7.15;;
72060;SDS011;59925;52.136;5.420;2023-04-01T00:55:37;20.60;;;7.90;;
72060;SDS011;59925;52.136;5.420;2023-04-01T00:58:08;19.23;;;6.90;;
72060;SDS011;59925;52.136;5.420;2023-04-01T01:00:40;21.70;;;7.23;;
72060;SDS011;59925;52.136;5.420;2023-04-01T01:03:07;21.90;;;7.80;;
72060;SDS011;59925;52.136;5.420;2023-04-01T01:06:08;18.98;;;6.68;;
72060;SDS011;59925;52.136;5.420;2023-04-01T01:11:28;24.92;;;6.82;;
72060;SDS011;59925;52.136;5.420;2023-04-01T01:14:10;20.50;;;7.80;;
72060;SDS011;59925;52.136;5.420;2023-04-01T01:16:50;23.08;;;7.40;;
72060;SDS011;59925;52.136;5.420;2023-04-01T01:19:33;21.55;;;7.65;;
72060;SDS011;59925;52.136;5.420;2023-04-01T01:22:20;21.45;;;7.25;;
72060;SDS011;59925;52.136;5.420;2023-04-01T01:25:10;22.67;;;7.55;;
72060;SDS011;59925;52.136;5.420;2023-04-01T01:28:11;18.47;;;7.90;;
72060;SDS011;59925;52.136;5.420;2023-04-01T01:30:47;21.17;;;7.65;;
72060;SDS011;59925;52.136;5.420;2023-04-01T01:33:38;15.05;;;6.50;;
72060;SDS011;59925;52.136;5.420;2023-04-01T01:36:13;14.73;;;5.50;;
72060;SDS011;59925;52.136;5.420;2023-04-01T01:38:42;15.75;;;6.13;;
72060;SDS011;59925;52.136;5.420;2023-04-01T01:41:10;12.97;;;5.73;;
72060;SDS011;59925;52.136;5.420;2023-04-01T01:43:44;15.15;;;5.57;;
72060;SDS011;59925;52.136;5.420;2023-04-01T01:46:14;11.05;;;4.25;;
72060;SDS011;59925;52.136;5.420;2023-04-01T01:48:45;13.88;;;4.68;;
72060;SDS011;59925;52.136;5.420;2023-04-01T01:51:13;14.45;;;4.72;;
72060;SDS011;59925;52.136;5.420;2023-04-01T01:53:40;11.57;;;4.27;;
72060;SDS011;59925;52.136;5.420;2023-04-01T01:56:07;12.85;;;3.72;;
72060;SDS011;59925;52.136;5.420;2023-04-01T01:58:38;10.98;;;3.25;;
72060;SDS011;59925;52.136;5.420;2023-04-01T02:01:11;11.75;;;3.47;;
72060;SDS011;59925;52.136;5.420;2023-04-01T02:03:41;7.85;;;2.53;;
72060;SDS011;59925;52.136;5.420;2023-04-01T02:06:10;7.90;;;2.90;;
72060;SDS011;59925;52.136;5.420;2023-04-01T02:11:18;8.05;;;2.70;;
72060;SDS011;59925;52.136;5.420;2023-04-01T02:13:52;6.53;;;2.45;;
72060;SDS011;59925;52.136;5.420;2023-04-01T02:16:25;5.82;;;2.55;;
72060;SDS011;59925;52.136;5.420;2023-04-01T02:18:55;5.27;;;2.30;;
72060;SDS011;59925;52.136;5.420;2023-04-01T02:21:24;6.50;;;2.60;;
72060;SDS011;59925;52.136;5.420;2023-04-01T02:23:56;8.25;;;2.63;;
72060;SDS011;59925;52.136;5.420;2023-04-01T02:26:26;5.68;;;2.55;;
72060;SDS011;59925;52.136;5.420;2023-04-01T02:28:53;6.60;;;2.85;;
72060;SDS011;59925;52.136;5.420;2023-04-01T02:31:21;5.97;;;2.70;;
72060;SDS011;59925;52.136;5.420;2023-04-01T02:33:49;9.38;;;2.95;;
72060;SDS011;59925;52.136;5.420;2023-04-01T02:36:16;4.65;;;2.40;;
72060;SDS011;59925;52.136;5.420;2023-04-01T02:38:44;8.43;;;2.72;;
72060;SDS011;59925;52.136;5.420;2023-04-01T02:41:12;10.43;;;3.08;;
72060;SDS011;59925;52.136;5.420;2023-04-01T02:43:39;7.57;;;3.03;;
72060;SDS011;59925;52.136;5.420;2023-04-01T02:46:05;7.57;;;3.22;;
72060;SDS011;59925;52.136;5.420;2023-04-01T02:48:32;8.07;;;2.92;;
72060;SDS011;59925;52.136;5.420;2023-04-01T02:50:59;7.75;;;2.85;;
72060;SDS011;59925;52.136;5.420;2023-04-01T02:53:25;8.13;;;2.97;;
72060;SDS011;59925;52.136;5.420;2023-04-01T02:55:51;6.57;;;3.10;;
72060;SDS011;59925;52.136;5.420;2023-04-01T02:58:18;6.70;;;2.60;;
72060;SDS011;59925;52.136;5.420;2023-04-01T03:00:45;5.05;;;2.47;;
72060;SDS011;59925;52.136;5.420;2023-04-01T03:03:11;6.45;;;2.58;;
72060;SDS011;59925;52.136;5.420;2023-04-01T03:05:39;5.10;;;2.13;;
72060;SDS011;59925;52.136;5.420;2023-04-01T03:08:06;5.80;;;2.40;;
72060;SDS011;59925;52.136;5.420;2023-04-01T03:10:32;5.50;;;2.58;;
72060;SDS011;59925;52.136;5.420;2023-04-01T03:12:59;6.22;;;2.33;;
72060;SDS011;59925;52.136;5.420;2023-04-01T03:15:25;3.58;;;2.13;;
72060;SDS011;59925;52.136;5.420;2023-04-01T03:17:52;9.05;;;2.25;;
72060;SDS011;59925;52.136;5.420;2023-04-01T03:20:18;4.50;;;1.70;;
72060;SDS011;59925;52.136;5.420;2023-04-01T03:22:45;6.20;;;1.90;;
72060;SDS011;59925;52.136;5.420;2023-04-01T03:25:12;5.18;;;2.00;;
72060;SDS011;59925;52.136;5.420;2023-04-01T03:27:39;5.85;;;2.03;;
72060;SDS011;59925;52.136;5.420;2023-04-01T03:30:06;4.68;;;1.95;;
72060;SDS011;59925;52.136;5.420;2023-04-01T03:32:33;3.60;;;2.10;;
72060;SDS011;59925;52.136;5.420;2023-04-01T03:34:59;5.80;;;1.83;;
72060;SDS011;59925;52.136;5.420;2023-04-01T03:37:26;4.25;;;2.15;;
72060;SDS011;59925;52.136;5.420;2023-04-01T03:39:52;7.60;;;2.70;;
72060;SDS011;59925;52.136;5.420;2023-04-01T03:42:19;4.68;;;2.58;;
72060;SDS011;59925;52.136;5.420;2023-04-01T03:44:45;5.97;;;2.70;;
72060;SDS011;59925;52.136;5.420;2023-04-01T03:47:12;7.35;;;2.70;;
72060;SDS011;59925;52.136;5.420;2023-04-01T03:49:38;6.75;;;2.85;;
72060;SDS011;59925;52.136;5.420;2023-04-01T03:52:07;11.93;;;3.60;;
72060;SDS011;59925;52.136;5.420;2023-04-01T03:54:35;8.80;;;4.10;;
72060;SDS011;59925;52.136;5.420;2023-04-01T03:57:01;9.30;;;4.73;;
72060;SDS011;59925;52.136;5.420;2023-04-01T03:59:28;10.05;;;5.60;;
72060;SDS011;59925;52.136;5.420;2023-04-01T04:01:54;16.48;;;5.40;;
72060;SDS011;59925;52.136;5.420;2023-04-01T04:04:21;14.98;;;5.03;;
72060;SDS011;59925;52.136;5.420;2023-04-01T04:06:47;11.10;;;4.72;;
72060;SDS011;59925;52.136;5.420;2023-04-01T04:09:14;15.23;;;5.53;;
72060;SDS011;59925;52.136;5.420;2023-04-01T04:11:40;14.02;;;6.07;;
72060;SDS011;59925;52.136;5.420;2023-04-01T04:14:07;11.50;;;4.97;;
72060;SDS011;59925;52.136;5.420;2023-04-01T04:16:34;18.73;;;6.10;;
72060;SDS011;59925;52.136;5.420;2023-04-01T04:19:02;11.40;;;5.43;;
72060;SDS011;59925;52.136;5.420;2023-04-01T04:21:29;14.67;;;5.47;;
72060;SDS011;59925;52.136;5.420;2023-04-01T04:23:56;9.40;;;4.70;;
72060;SDS011;59925;52.136;5.420;2023-04-01T04:26:22;10.90;;;3.97;;
72060;SDS011;59925;52.136;5.420;2023-04-01T04:28:49;8.68;;;4.00;;
72060;SDS011;59925;52.136;5.420;2023-04-01T04:31:22;8.73;;;3.92;;
72060;SDS011;59925;52.136;5.420;2023-04-01T04:33:49;8.70;;;3.77;;
72060;SDS011;59925;52.136;5.420;2023-04-01T04:36:17;7.32;;;3.58;;
72060;SDS011;59925;52.136;5.420;2023-04-01T04:38:44;8.00;;;3.90;;
72060;SDS011;59925;52.136;5.420;2023-04-01T04:41:15;8.18;;;4.00;;
72060;SDS011;59925;52.136;5.420;2023-04-01T04:43:51;7.97;;;4.13;;
72060;SDS011;59925;52.136;5.420;2023-04-01T04:46:20;8.80;;;4.27;;
72060;SDS011;59925;52.136;5.420;2023-04-01T04:48:47;9.27;;;4.10;;
72060;SDS011;59925;52.136;5.420;2023-04-01T04:51:14;10.23;;;4.22;;
72060;SDS011;59925;52.136;5.420;2023-04-01T04:53:42;9.55;;;3.60;;
72060;SDS011;59925;52.136;5.420;2023-04-01T04:56:09;9.60;;;3.60;;
72060;SDS011;59925;52.136;5.420;2023-04-01T04:58:36;6.63;;;2.80;;
72060;SDS011;59925;52.136;5.420;2023-04-01T05:01:09;9.18;;;3.33;;
72060;SDS011;59925;52.136;5.420;2023-04-01T05:03:37;8.32;;;2.88;;
72060;SDS011;59925;52.136;5.420;2023-04-01T05:06:05;6.82;;;2.95;;
72060;SDS011;59925;52.136;5.420;2023-04-01T05:08:32;6.78;;;3.05;;
72060;SDS011;59925;52.136;5.420;2023-04-01T05:10:59;6.73;;;2.87;;
72060;SDS011;59925;52.136;5.420;2023-04-01T05:13:27;6.80;;;3.00;;
72060;SDS011;59925;52.136;5.420;2023-04-01T05:15:54;7.60;;;3.10;;
72060;SDS011;59925;52.136;5.420;2023-04-01T05:18:21;8.07;;;3.05;;
72060;SDS011;59925;52.136;5.420;2023-04-01T05:20:48;8.10;;;3.60;;
72060;SDS011;59925;52.136;5.420;2023-04-01T05:23:16;8.23;;;3.57;;
72060;SDS011;59925;52.136;5.420;2023-04-01T05:25:44;7.43;;;3.47;;
72060;SDS011;59925;52.136;5.420;2023-04-01T05:28:11;9.02;;;3.63;;
72060;SDS011;59925;52.136;5.420;2023-04-01T05:30:39;7.85;;;3.78;;
72060;SDS011;59925;52.136;5.420;2023-04-01T05:33:08;9.52;;;3.97;;
72060;SDS011;59925;52.136;5.420;2023-04-01T05:35:35;9.23;;;3.70;;
72060;SDS011;59925;52.136;5.420;2023-04-01T05:38:02;7.82;;;3.80;;
72060;SDS011;59925;52.136;5.420;2023-04-01T05:40:29;7.55;;;3.20;;
72060;SDS011;59925;52.136;5.420;2023-04-01T05:42:56;7.97;;;4.40;;
72060;SDS011;59925;52.136;5.420;2023-04-01T05:45:24;6.82;;;3.28;;
72060;SDS011;59925;52.136;5.420;2023-04-01T05:47:50;6.83;;;3.03;;
72060;SDS011;59925;52.136;5.420;2023-04-01T05:50:17;6.45;;;2.85;;
72060;SDS011;59925;52.136;5.420;2023-04-01T05:52:43;5.22;;;2.47;;
72060;SDS011;59925;52.136;5.420;2023-04-01T05:55:10;4.55;;;2.63;;
72060;SDS011;59925;52.136;5.420;2023-04-01T05:57:37;5.07;;;2.40;;
72060;SDS011;59925;52.136;5.420;2023-04-01T06:00:03;5.53;;;2.40;;
72060;SDS011;59925;52.136;5.420;2023-04-01T06:02:31;3.83;;;1.70;;
72060;SDS011;59925;52.136;5.420;2023-04-01T06:08:05;4.28;;;1.65;;
72060;SDS011;59925;52.136;5.420;2023-04-01T06:13:31;4.17;;;1.80;;
72060;SDS011;59925;52.136;5.420;2023-04-01T06:21:41;6.68;;;2.25;;
72060;SDS011;59925;52.136;5.420;2023-04-01T06:26:59;6.67;;;2.80;;
72060;SDS011;59925;52.136;5.420;2023-04-01T06:30:07;5.03;;;2.20;;
72060;SDS011;59925;52.136;5.420;2023-04-01T06:43:36;6.10;;;2.40;;
72060;SDS011;59925;52.136;5.420;2023-04-01T06:46:31;5.57;;;2.10;;
72060;SDS011;59925;52.136;5.420;2023-04-01T06:54:48;5.53;;;1.90;;
72060;SDS011;59925;52.136;5.420;2023-04-01T06:57:38;4.35;;;1.50;;
72060;SDS011;59925;52.136;5.420;2023-04-01T07:00:25;5.22;;;1.20;;
72060;SDS011;59925;52.136;5.420;2023-04-01T07:03:05;4.13;;;1.20;;
72060;SDS011;59925;52.136;5.420;2023-04-01T07:05:33;3.97;;;1.50;;
72060;SDS011;59925;52.136;5.420;2023-04-01T07:08:03;2.50;;;1.30;;
72060;SDS011;59925;52.136;5.420;2023-04-01T07:13:25;3.35;;;1.55;;
72060;SDS011;59925;52.136;5.420;2023-04-01T07:16:05;4.93;;;1.52;;
72060;SDS011;59925;52.136;5.420;2023-04-01T07:18:48;4.30;;;1.83;;
72060;SDS011;59925;52.136;5.420;2023-04-01T07:21:22;5.60;;;2.23;;
72060;SDS011;59925;52.136;5.420;2023-04-01T07:23:52;5.13;;;2.10;;
72060;SDS011;59925;52.136;5.420;2023-04-01T07:26:23;5.68;;;2.25;;
72060;SDS011;59925;52.136;5.420;2023-04-01T07:28:51;7.70;;;2.42;;
72060;SDS011;59925;52.136;5.420;2023-04-01T07:31:31;4.88;;;2.10;;
72060;SDS011;59925;52.136;5.420;2023-04-01T07:37:10;5.32;;;2.53;;
72060;SDS011;59925;52.136;5.420;2023-04-01T07:39:49;4.70;;;2.38;;
72060;SDS011;59925;52.136;5.420;2023-04-01T07:47:45;6.13;;;3.10;;
72060;SDS011;59925;52.136;5.420;2023-04-01T07:50:26;6.85;;;3.05;;
72060;SDS011;59925;52.136;5.420;2023-04-01T07:55:57;9.13;;;3.10;;
72060;SDS011;59925;52.136;5.420;2023-04-01T07:58:29;8.00;;;3.45;;
72060;SDS011;59925;52.136;5.420;2023-04-01T08:01:08;6.93;;;3.07;;
72060;SDS011;59925;52.136;5.420;2023-04-01T08:06:41;6.93;;;3.75;;
72060;SDS011;59925;52.136;5.420;2023-04-01T08:12:16;6.90;;;3.63;;
72060;SDS011;59925;52.136;5.420;2023-04-01T08:17:58;7.78;;;3.10;;
72060;SDS011;59925;52.136;5.420;2023-04-01T08:23:21;7.95;;;3.35;;
72060;SDS011;59925;52.136;5.420;2023-04-01T08:25:56;5.60;;;3.00;;
72060;SDS011;59925;52.136;5.420;2023-04-01T08:28:37;6.53;;;2.87;;
72060;SDS011;59925;52.136;5.420;2023-04-01T08:31:23;7.38;;;2.92;;
72060;SDS011;59925;52.136;5.420;2023-04-01T08:33:57;7.00;;;3.45;;
72060;SDS011;59925;52.136;5.420;2023-04-01T08:38:54;8.70;;;3.45;;
72060;SDS011;59925;52.136;5.420;2023-04-01T08:49:56;8.68;;;3.78;;
72060;SDS011;59925;52.136;5.420;2023-04-01T08:52:30;8.30;;;3.22;;
72060;SDS011;59925;52.136;5.420;2023-04-01T09:07:04;7.25;;;3.60;;
72060;SDS011;59925;52.136;5.420;2023-04-01T09:09:56;7.97;;;3.60;;
72060;SDS011;59925;52.136;5.420;2023-04-01T09:12:38;6.80;;;3.70;;
72060;SDS011;59925;52.136;5.420;2023-04-01T09:35:29;6.07;;;2.83;;
72060;SDS011;59925;52.136;5.420;2023-04-01T09:46:37;7.55;;;3.78;;
72060;SDS011;59925;52.136;5.420;2023-04-01T10:00:20;9.75;;;4.50;;
72060;SDS011;59925;52.136;5.420;2023-04-01T10:11:54;7.70;;;4.47;;
72060;SDS011;59925;52.136;5.420;2023-04-01T10:29:21;5.70;;;3.40;;
72060;SDS011;59925;52.136;5.420;2023-04-01T10:45:37;6.15;;;3.35;;
72060;SDS011;59925;52.136;5.420;2023-04-01T10:48:23;6.90;;;3.97;;
72060;SDS011;59925;52.136;5.420;2023-04-01T10:51:16;6.90;;;3.58;;
72060;SDS011;59925;52.136;5.420;2023-04-01T11:22:14;2.38;;;1.20;;
72060;SDS011;59925;52.136;5.420;2023-04-01T11:28:35;3.40;;;1.40;;
72060;SDS011;59925;52.136;5.420;2023-04-01T11:34:26;1.95;;;0.55;;
72060;SDS011;59925;52.136;5.420;2023-04-01T11:37:17;2.00;;;1.23;;
72060;SDS011;59925;52.136;5.420;2023-04-01T11:46:10;0.80;;;0.40;;
72060;SDS011;59925;52.136;5.420;2023-04-01T11:48:45;1.23;;;0.60;;
72060;SDS011;59925;52.136;5.420;2023-04-01T12:05:49;1.75;;;0.85;;
72060;SDS011;59925;52.136;5.420;2023-04-01T12:08:41;2.28;;;1.08;;
72060;SDS011;59925;52.136;5.420;2023-04-01T12:11:25;2.65;;;1.48;;
72060;SDS011;59925;52.136;5.420;2023-04-01T12:22:41;4.70;;;2.85;;
72060;SDS011;59925;52.136;5.420;2023-04-01T12:28:06;6.40;;;3.77;;
72060;SDS011;59925;52.136;5.420;2023-04-01T12:30:46;6.88;;;3.35;;
72060;SDS011;59925;52.136;5.420;2023-04-01T12:41:49;8.30;;;4.37;;
72060;SDS011;59925;52.136;5.420;2023-04-01T12:50:07;10.48;;;5.32;;
72060;SDS011;59925;52.136;5.420;2023-04-01T12:55:34;10.13;;;5.03;;
72060;SDS011;59925;52.136;5.420;2023-04-01T13:06:18;10.50;;;5.90;;
72060;SDS011;59925;52.136;5.420;2023-04-01T13:09:10;9.23;;;5.40;;
72060;SDS011;59925;52.136;5.420;2023-04-01T13:12:14;9.38;;;4.85;;
72060;SDS011;59925;52.136;5.420;2023-04-01T13:14:53;9.68;;;4.47;;
72060;SDS011;59925;52.136;5.420;2023-04-01T13:22:41;6.13;;;3.50;;
72060;SDS011;59925;52.136;5.420;2023-04-01T13:28:06;5.47;;;3.05;;
72060;SDS011;59925;52.136;5.420;2023-04-01T13:43:45;4.53;;;1.92;;
72060;SDS011;59925;52.136;5.420;2023-04-01T13:49:13;3.73;;;2.33;;
72060;SDS011;59925;52.136;5.420;2023-04-01T13:51:50;4.22;;;2.15;;
72060;SDS011;59925;52.136;5.420;2023-04-01T14:00:10;3.33;;;1.88;;
72060;SDS011;59925;52.136;5.420;2023-04-01T14:16:55;4.57;;;2.60;;
72060;SDS011;59925;52.136;5.420;2023-04-01T14:22:38;6.22;;;2.72;;
72060;SDS011;59925;52.136;5.420;2023-04-01T14:27:50;6.00;;;2.70;;
72060;SDS011;59925;52.136;5.420;2023-04-01T14:30:39;5.73;;;2.50;;
72060;SDS011;59925;52.136;5.420;2023-04-01T14:41:50;3.53;;;2.22;;
72060;SDS011;59925;52.136;5.420;2023-04-01T14:50:29;5.82;;;2.58;;
72060;SDS011;59925;52.136;5.420;2023-04-01T14:55:44;4.75;;;2.50;;
72060;SDS011;59925;52.136;5.420;2023-04-01T14:58:15;5.17;;;2.63;;
72060;SDS011;59925;52.136;5.420;2023-04-01T15:04:04;4.28;;;2.60;;
72060;SDS011;59925;52.136;5.420;2023-04-01T15:10:02;4.35;;;2.70;;
72060;SDS011;59925;52.136;5.420;2023-04-01T15:12:54;4.43;;;2.30;;
72060;SDS011;59925;52.136;5.420;2023-04-01T15:15:45;4.65;;;3.13;;
72060;SDS011;59925;52.136;5.420;2023-04-01T15:18:16;5.07;;;2.85;;
72060;SDS011;59925;52.136;5.420;2023-04-01T15:21:01;5.65;;;3.20;;
72060;SDS011;59925;52.136;5.420;2023-04-01T15:26:22;3.47;;;2.17;;
72060;SDS011;59925;52.136;5.420;2023-04-01T15:28:56;4.28;;;2.38;;
72060;SDS011;59925;52.136;5.420;2023-04-01T15:37:10;4.18;;;2.22;;
72060;SDS011;59925;52.136;5.420;2023-04-01T15:45:11;4.07;;;2.45;;
72060;SDS011;59925;52.136;5.420;2023-04-01T15:47:44;3.50;;;1.75;;
72060;SDS011;59925;52.136;5.420;2023-04-01T15:58:32;3.20;;;1.58;;
72060;SDS011;59925;52.136;5.420;2023-04-01T16:15:48;3.55;;;2.28;;
72060;SDS011;59925;52.136;5.420;2023-04-01T16:18:34;3.47;;;2.15;;
72060;SDS011;59925;52.136;5.420;2023-04-01T16:21:21;6.07;;;2.37;;
72060;SDS011;59925;52.136;5.420;2023-04-01T16:27:03;3.53;;;2.00;;
72060;SDS011;59925;52.136;5.420;2023-04-01T16:29:48;4.13;;;2.17;;
72060;SDS011;59925;52.136;5.420;2023-04-01T16:38:18;5.43;;;2.72;;
72060;SDS011;59925;52.136;5.420;2023-04-01T16:43:44;4.53;;;2.70;;
72060;SDS011;59925;52.136;5.420;2023-04-01T16:49:01;3.87;;;2.47;;
72060;SDS011;59925;52.136;5.420;2023-04-01T16:59:41;3.38;;;2.50;;
72060;SDS011;59925;52.136;5.420;2023-04-01T17:02:35;3.20;;;2.17;;
72060;SDS011;59925;52.136;5.420;2023-04-01T17:05:10;3.08;;;1.85;;
72060;SDS011;59925;52.136;5.420;2023-04-01T17:10:36;3.47;;;2.40;;
72060;SDS011;59925;52.136;5.420;2023-04-01T17:21:08;3.80;;;2.28;;
72060;SDS011;59925;52.136;5.420;2023-04-01T17:23:44;3.90;;;2.17;;
72060;SDS011;59925;52.136;5.420;2023-04-01T17:26:23;3.17;;;2.22;;
72060;SDS011;59925;52.136;5.420;2023-04-01T17:28:57;3.53;;;2.10;;
72060;SDS011;59925;52.136;5.420;2023-04-01T17:31:42;3.45;;;2.40;;
72060;SDS011;59925;52.136;5.420;2023-04-01T17:47:20;3.13;;;1.95;;
72060;SDS011;59925;52.136;5.420;2023-04-01T17:57:53;3.58;;;2.30;;
72060;SDS011;59925;52.136;5.420;2023-04-01T18:00:37;3.90;;;2.45;;
72060;SDS011;59925;52.136;5.420;2023-04-01T18:06:21;3.55;;;2.38;;
72060;SDS011;59925;52.136;5.420;2023-04-01T18:17:41;2.83;;;2.25;;
72060;SDS011;59925;52.136;5.420;2023-04-01T18:25:39;4.10;;;2.65;;
72060;SDS011;59925;52.136;5.420;2023-04-01T18:28:20;5.15;;;2.72;;
72060;SDS011;59925;52.136;5.420;2023-04-01T18:33:34;3.95;;;2.80;;
72060;SDS011;59925;52.136;5.420;2023-04-01T18:38:46;4.90;;;2.72;;
72060;SDS011;59925;52.136;5.420;2023-04-01T18:44:23;4.57;;;3.30;;
72060;SDS011;59925;52.136;5.420;2023-04-01T18:50:44;4.20;;;3.00;;
72060;SDS011;59925;52.136;5.420;2023-04-01T18:53:30;3.83;;;2.88;;
72060;SDS011;59925;52.136;5.420;2023-04-01T18:56:05;5.40;;;3.20;;
72060;SDS011;59925;52.136;5.420;2023-04-01T18:58:35;4.38;;;3.38;;
72060;SDS011;59925;52.136;5.420;2023-04-01T19:01:26;6.78;;;2.72;;
72060;SDS011;59925;52.136;5.420;2023-04-01T19:09:55;3.45;;;2.40;;
72060;SDS011;59925;52.136;5.420;2023-04-01T19:23:51;5.13;;;2.55;;
72060;SDS011;59925;52.136;5.420;2023-04-01T19:27:03;3.15;;;2.60;;
72060;SDS011;59925;52.136;5.420;2023-04-01T19:35:41;4.18;;;2.80;;
72060;SDS011;59925;52.136;5.420;2023-04-01T19:41:44;4.72;;;3.42;;
72060;SDS011;59925;52.136;5.420;2023-04-01T19:46:56;4.70;;;2.60;;
72060;SDS011;59925;52.136;5.420;2023-04-01T19:52:32;4.78;;;3.25;;
72060;SDS011;59925;52.136;5.420;2023-04-01T20:00:41;7.00;;;3.33;;
72060;SDS011;59925;52.136;5.420;2023-04-01T20:16:43;7.35;;;4.57;;
72060;SDS011;59925;52.136;5.420;2023-04-01T20:19:21;6.43;;;4.47;;
72060;SDS011;59925;52.136;5.420;2023-04-01T20:21:56;5.95;;;4.40;;
72060;SDS011;59925;52.136;5.420;2023-04-01T20:24:28;6.68;;;4.95;;
72060;SDS011;59925;52.136;5.420;2023-04-01T20:27:04;7.03;;;4.67;;
72060;SDS011;59925;52.136;5.420;2023-04-01T20:29:37;7.05;;;5.22;;
72060;SDS011;59925;52.136;5.420;2023-04-01T20:40:31;8.70;;;5.13;;
72060;SDS011;59925;52.136;5.420;2023-04-01T20:56:37;9.90;;;4.53;;
72060;SDS011;59925;52.136;5.420;2023-04-01T21:04:22;8.20;;;4.57;;
72060;SDS011;59925;52.136;5.420;2023-04-01T21:09:47;7.63;;;4.40;;
72060;SDS011;59925;52.136;5.420;2023-04-01T21:15:48;6.00;;;4.13;;
72060;SDS011;59925;52.136;5.420;2023-04-01T21:27:21;5.75;;;4.13;;
72060;SDS011;59925;52.136;5.420;2023-04-01T21:35:34;6.93;;;3.83;;
72060;SDS011;59925;52.136;5.420;2023-04-01T21:38:20;8.68;;;4.03;;
72060;SDS011;59925;52.136;5.420;2023-04-01T21:43:50;7.00;;;4.20;;
72060;SDS011;59925;52.136;5.420;2023-04-01T21:52:25;8.38;;;4.43;;
72060;SDS011;59925;52.136;5.420;2023-04-01T22:00:42;7.47;;;4.50;;
72060;SDS011;59925;52.136;5.420;2023-04-01T22:11:45;9.88;;;4.97;;
72060;SDS011;59925;52.136;5.420;2023-04-01T22:14:39;9.10;;;4.47;;
72060;SDS011;59925;52.136;5.420;2023-04-01T22:17:34;7.60;;;3.73;;
72060;SDS011;59925;52.136;5.420;2023-04-01T22:25:59;6.25;;;3.97;;
72060;SDS011;59925;52.136;5.420;2023-04-01T22:31:28;6.67;;;4.30;;
72060;SDS011;59925;52.136;5.420;2023-04-01T22:34:09;7.68;;;4.32;;
72060;SDS011;59925;52.136;5.420;2023-04-01T22:36:46;6.57;;;4.60;;
72060;SDS011;59925;52.136;5.420;2023-04-01T22:39:33;7.43;;;4.60;;
72060;SDS011;59925;52.136;5.420;2023-04-01T22:56:03;9.98;;;5.45;;
72060;SDS011;59925;52.136;5.420;2023-04-01T22:58:34;9.40;;;5.63;;
72060;SDS011;59925;52.136;5.420;2023-04-01T23:01:07;13.73;;;5.15;;
72060;SDS011;59925;52.136;5.420;2023-04-01T23:03:40;10.18;;;5.30;;
72060;SDS011;59925;52.136;5.420;2023-04-01T23:06:19;10.10;;;5.60;;
72060;SDS011;59925;52.136;5.420;2023-04-01T23:11:44;10.20;;;5.80;;
72060;SDS011;59925;52.136;5.420;2023-04-01T23:22:16;9.77;;;6.00;;
72060;SDS011;59925;52.136;5.420;2023-04-01T23:28:16;10.75;;;5.85;;
72060;SDS011;59925;52.136;5.420;2023-04-01T23:30:51;8.13;;;5.47;;
72060;SDS011;59925;52.136;5.420;2023-04-01T23:35:48;11.57;;;6.45;;
72060;SDS011;59925;52.136;5.420;2023-04-01T23:38:15;10.40;;;6.20;;
72060;SDS011;59925;52.136;5.420;2023-04-01T23:40:42;12.70;;;6.47;;
72060;SDS011;59925;52.136;5.420;2023-04-01T23:43:25;13.05;;;6.85;;
72060;SDS011;59925;52.136;5.420;2023-04-01T23:45:54;11.70;;;6.03;;
72060;SDS011;59925;52.136;5.420;2023-04-01T23:48:25;12.85;;;6.80;;
72060;SDS011;59925;52.136;5.420;2023-04-01T23:54:11;11.30;;;6.55;;
72060;SDS011;59925;52.136;5.420;2023-04-01T23:56:45;13.35;;;6.43;;
72060;SDS011;59925;52.136;5.420;2023-04-01T23:59:18;11.20;;;6.32;;
